sensor_id;sensor_type;location;lat;lon;timestamp;temperature;humidity
22676;DHT22;12521;43.310;21.876;2024-01-16T00:03:12;5.9;96.0
22676;DHT22;12521;43.310;21.876;2024-01-16T00:07:48;5.9;96.0
22676;DHT22;12521;43.310;21.876;2024-01-16T00:12:24;5.7;96.0
22676;DHT22;12521;43.310;21.876;2024-01-16T00:17:00;5.7;96.0
22676;DHT22;12521;43.310;21.876;2024-01-16T00:21:40;5.5;96.0
22676;DHT22;12521;43.310;21.876;2024-01-16T00:26:21;5.5;96.0
22676;DHT22;12521;43.310;21.876;2024-01-16T00:30:59;5.0;96.0
22676;DHT22;12521;43.310;21.876;2024-01-16T00:35:35;5.0;96.0
22676;DHT22;12521;43.310;21.876;2024-01-16T00:40:12;4.5;96.0
22676;DHT22;12521;43.310;21.876;2024-01-16T00:44:49;4.5;96.0
22676;DHT22;12521;43.310;21.876;2024-01-16T00:49:25;4.2;96.0
22676;DHT22;12521;43.310;21.876;2024-01-16T00:54:03;4.2;96.0
22676;DHT22;12521;43.310;21.876;2024-01-16T00:58:39;3.8;96.0
22676;DHT22;12521;43.310;21.876;2024-01-16T01:03:16;3.8;96.0
22676;DHT22;12521;43.310;21.876;2024-01-16T01:07:53;3.8;96.0
22676;DHT22;12521;43.310;21.876;2024-01-16T01:12:29;3.4;96.0
22676;DHT22;12521;43.310;21.876;2024-01-16T01:17:06;3.4;96.0
22676;DHT22;12521;43.310;21.876;2024-01-16T01:21:42;3.1;96.0
22676;DHT22;12521;43.310;21.876;2024-01-16T01:26:19;3.1;96.0
22676;DHT22;12521;43.310;21.876;2024-01-16T01:30:55;2.9;96.0
22676;DHT22;12521;43.310;21.876;2024-01-16T01:35:32;2.9;96.0
22676;DHT22;12521;43.310;21.876;2024-01-16T01:40:11;2.7;96.0
22676;DHT22;12521;43.310;21.876;2024-01-16T01:44:48;2.7;96.0
22676;DHT22;12521;43.310;21.876;2024-01-16T01:49:28;2.6;96.0
22676;DHT22;12521;43.310;21.876;2024-01-16T01:54:05;2.6;96.0
22676;DHT22;12521;43.310;21.876;2024-01-16T01:58:53;2.5;96.0
22676;DHT22;12521;43.310;21.876;2024-01-16T02:03:45;2.5;96.0
22676;DHT22;12521;43.310;21.876;2024-01-16T02:08:24;2.5;96.0
22676;DHT22;12521;43.310;21.876;2024-01-16T02:13:00;2.4;96.0
22676;DHT22;12521;43.310;21.876;2024-01-16T02:17:37;2.4;96.0
22676;DHT22;12521;43.310;21.876;2024-01-16T02:22:31;2.4;96.0
22676;DHT22;12521;43.310;21.876;2024-01-16T02:27:08;2.4;96.0
22676;DHT22;12521;43.310;21.876;2024-01-16T02:31:44;2.4;96.0
22676;DHT22;12521;43.310;21.876;2024-01-16T02:36:20;2.4;96.0
22676;DHT22;12521;43.310;21.876;2024-01-16T02:40:57;2.4;96.0
22676;DHT22;12521;43.310;21.876;2024-01-16T02:45:34;2.4;96.0
22676;DHT22;12521;43.310;21.876;2024-01-16T02:50:10;2.3;96.0
22676;DHT22;12521;43.310;21.876;2024-01-16T02:54:47;2.3;96.0
22676;DHT22;12521;43.310;21.876;2024-01-16T02:59:23;2.3;96.0
22676;DHT22;12521;43.310;21.876;2024-01-16T03:03:59;2.3;96.0
22676;DHT22;12521;43.310;21.876;2024-01-16T03:08:36;2.3;96.0
22676;DHT22;12521;43.310;21.876;2024-01-16T03:13:12;2.2;96.0
22676;DHT22;12521;43.310;21.876;2024-01-16T03:17:49;2.2;96.0
22676;DHT22;12521;43.310;21.876;2024-01-16T03:22:25;2.2;96.0
22676;DHT22;12521;43.310;21.876;2024-01-16T03:27:03;2.2;96.0
22676;DHT22;12521;43.310;21.876;2024-01-16T03:31:40;2.1;96.0
22676;DHT22;12521;43.310;21.876;2024-01-16T03:36:16;2.1;96.0
22676;DHT22;12521;43.310;21.876;2024-01-16T03:40:53;2.0;96.0
22676;DHT22;12521;43.310;21.876;2024-01-16T03:45:29;2.0;96.0
22676;DHT22;12521;43.310;21.876;2024-01-16T03:50:08;2.0;96.0
22676;DHT22;12521;43.310;21.876;2024-01-16T03:54:44;2.0;96.0
22676;DHT22;12521;43.310;21.876;2024-01-16T03:59:20;2.0;96.0
22676;DHT22;12521;43.310;21.876;2024-01-16T04:03:57;2.0;96.0
22676;DHT22;12521;43.310;21.876;2024-01-16T04:08:34;2.0;96.0
22676;DHT22;12521;43.310;21.876;2024-01-16T04:13:11;2.0;96.0
22676;DHT22;12521;43.310;21.876;2024-01-16T04:17:47;2.0;96.0
22676;DHT22;12521;43.310;21.876;2024-01-16T04:22:24;2.0;96.0
22676;DHT22;12521;43.310;21.876;2024-01-16T04:27:02;2.0;96.0
22676;DHT22;12521;43.310;21.876;2024-01-16T04:31:40;2.0;96.0
22676;DHT22;12521;43.310;21.876;2024-01-16T04:36:16;2.0;96.0
22676;DHT22;12521;43.310;21.876;2024-01-16T04:40:52;2.1;96.0
22676;DHT22;12521;43.310;21.876;2024-01-16T04:45:29;2.1;96.0
22676;DHT22;12521;43.310;21.876;2024-01-16T04:50:08;2.1;96.0
22676;DHT22;12521;43.310;21.876;2024-01-16T04:54:44;2.1;96.0
22676;DHT22;12521;43.310;21.876;2024-01-16T04:59:21;2.1;96.0
22676;DHT22;12521;43.310;21.876;2024-01-16T05:03:57;2.1;96.0
22676;DHT22;12521;43.310;21.876;2024-01-16T05:08:33;2.1;96.0
22676;DHT22;12521;43.310;21.876;2024-01-16T05:13:09;2.1;96.0
22676;DHT22;12521;43.310;21.876;2024-01-16T05:17:45;2.1;96.0
22676;DHT22;12521;43.310;21.876;2024-01-16T05:22:23;2.1;96.0
22676;DHT22;12521;43.310;21.876;2024-01-16T05:26:59;2.1;96.0
22676;DHT22;12521;43.310;21.876;2024-01-16T05:31:40;2.1;96.0
22676;DHT22;12521;43.310;21.876;2024-01-16T05:36:17;2.1;96.0
22676;DHT22;12521;43.310;21.876;2024-01-16T05:40:54;2.1;96.0
22676;DHT22;12521;43.310;21.876;2024-01-16T05:45:31;2.1;96.0
22676;DHT22;12521;43.310;21.876;2024-01-16T05:50:09;2.0;96.0
22676;DHT22;12521;43.310;21.876;2024-01-16T05:54:46;2.0;96.0
22676;DHT22;12521;43.310;21.876;2024-01-16T05:59:22;2.0;96.0
22676;DHT22;12521;43.310;21.876;2024-01-16T06:03:59;2.0;96.0
22676;DHT22;12521;43.310;21.876;2024-01-16T06:08:35;2.0;96.0
22676;DHT22;12521;43.310;21.876;2024-01-16T06:13:12;2.0;96.0
22676;DHT22;12521;43.310;21.876;2024-01-16T06:17:49;2.0;96.0
22676;DHT22;12521;43.310;21.876;2024-01-16T06:22:25;1.9;96.0
22676;DHT22;12521;43.310;21.876;2024-01-16T06:27:04;1.9;96.0
22676;DHT22;12521;43.310;21.876;2024-01-16T06:31:41;1.9;96.0
22676;DHT22;12521;43.310;21.876;2024-01-16T06:36:18;1.9;96.0
22676;DHT22;12521;43.310;21.876;2024-01-16T06:40:54;1.9;96.0
22676;DHT22;12521;43.310;21.876;2024-01-16T06:45:30;1.9;96.0
22676;DHT22;12521;43.310;21.876;2024-01-16T06:50:09;1.9;96.0
22676;DHT22;12521;43.310;21.876;2024-01-16T06:54:45;1.9;96.0
22676;DHT22;12521;43.310;21.876;2024-01-16T06:59:22;1.9;96.0
22676;DHT22;12521;43.310;21.876;2024-01-16T07:03:58;1.9;96.0
22676;DHT22;12521;43.310;21.876;2024-01-16T07:08:34;1.9;96.0
22676;DHT22;12521;43.310;21.876;2024-01-16T07:13:11;2.0;96.0
22676;DHT22;12521;43.310;21.876;2024-01-16T07:17:47;2.0;96.0
22676;DHT22;12521;43.310;21.876;2024-01-16T07:22:24;2.0;96.0
22676;DHT22;12521;43.310;21.876;2024-01-16T07:27:00;2.0;96.0
22676;DHT22;12521;43.310;21.876;2024-01-16T07:31:37;2.0;96.0
22676;DHT22;12521;43.310;21.876;2024-01-16T07:36:14;2.0;96.0
22676;DHT22;12521;43.310;21.876;2024-01-16T07:40:51;2.0;96.0
22676;DHT22;12521;43.310;21.876;2024-01-16T07:45:27;2.0;96.0
22676;DHT22;12521;43.310;21.876;2024-01-16T07:50:06;2.0;96.0
22676;DHT22;12521;43.310;21.876;2024-01-16T07:54:42;2.0;96.0
22676;DHT22;12521;43.310;21.876;2024-01-16T07:59:18;2.0;96.0
22676;DHT22;12521;43.310;21.876;2024-01-16T08:03:55;2.0;96.0
22676;DHT22;12521;43.310;21.876;2024-01-16T08:08:31;2.0;96.0
22676;DHT22;12521;43.310;21.876;2024-01-16T08:13:07;2.2;96.0
22676;DHT22;12521;43.310;21.876;2024-01-16T08:17:44;2.2;96.0
22676;DHT22;12521;43.310;21.876;2024-01-16T08:22:20;2.3;96.0
22676;DHT22;12521;43.310;21.876;2024-01-16T08:26:56;2.3;96.0
22676;DHT22;12521;43.310;21.876;2024-01-16T08:31:33;2.4;96.0
22676;DHT22;12521;43.310;21.876;2024-01-16T08:36:09;2.4;96.0
22676;DHT22;12521;43.310;21.876;2024-01-16T08:40:45;2.5;96.0
22676;DHT22;12521;43.310;21.876;2024-01-16T08:45:22;2.5;96.0
22676;DHT22;12521;43.310;21.876;2024-01-16T08:49:59;2.6;96.0
22676;DHT22;12521;43.310;21.876;2024-01-16T08:54:35;2.6;96.0
22676;DHT22;12521;43.310;21.876;2024-01-16T08:59:11;2.8;96.0
22676;DHT22;12521;43.310;21.876;2024-01-16T09:03:47;2.8;96.0
22676;DHT22;12521;43.310;21.876;2024-01-16T09:08:26;2.8;96.0
22676;DHT22;12521;43.310;21.876;2024-01-16T09:13:03;2.8;96.0
22676;DHT22;12521;43.310;21.876;2024-01-16T09:17:39;2.8;96.0
22676;DHT22;12521;43.310;21.876;2024-01-16T09:22:16;2.9;96.0
22676;DHT22;12521;43.310;21.876;2024-01-16T09:26:52;2.9;96.0
22676;DHT22;12521;43.310;21.876;2024-01-16T09:31:28;3.0;96.0
22676;DHT22;12521;43.310;21.876;2024-01-16T09:36:05;3.0;96.0
22676;DHT22;12521;43.310;21.876;2024-01-16T09:40:43;3.1;96.0
22676;DHT22;12521;43.310;21.876;2024-01-16T09:45:21;3.1;96.0
22676;DHT22;12521;43.310;21.876;2024-01-16T09:50:02;3.2;96.0
22676;DHT22;12521;43.310;21.876;2024-01-16T09:54:41;3.2;96.0
22676;DHT22;12521;43.310;21.876;2024-01-16T09:59:20;3.3;96.0
22676;DHT22;12521;43.310;21.876;2024-01-16T10:04:02;3.3;96.0
22676;DHT22;12521;43.310;21.876;2024-01-16T10:08:40;3.3;96.0
22676;DHT22;12521;43.310;21.876;2024-01-16T10:13:17;3.4;96.0
22676;DHT22;12521;43.310;21.876;2024-01-16T10:17:54;3.4;96.0
22676;DHT22;12521;43.310;21.876;2024-01-16T10:22:31;3.6;96.0
22676;DHT22;12521;43.310;21.876;2024-01-16T10:27:07;3.6;96.0
22676;DHT22;12521;43.310;21.876;2024-01-16T10:31:44;3.6;96.0
22676;DHT22;12521;43.310;21.876;2024-01-16T10:36:20;3.6;96.0
22676;DHT22;12521;43.310;21.876;2024-01-16T10:41:11;3.7;96.0
22676;DHT22;12521;43.310;21.876;2024-01-16T10:45:49;3.7;96.0
22676;DHT22;12521;43.310;21.876;2024-01-16T10:50:42;3.8;96.0
22676;DHT22;12521;43.310;21.876;2024-01-16T10:55:23;3.8;96.0
22676;DHT22;12521;43.310;21.876;2024-01-16T11:00:08;3.9;96.0
22676;DHT22;12521;43.310;21.876;2024-01-16T11:04:57;3.9;96.0
22676;DHT22;12521;43.310;21.876;2024-01-16T11:09:35;4.0;96.0
22676;DHT22;12521;43.310;21.876;2024-01-16T11:14:16;4.0;96.0
22676;DHT22;12521;43.310;21.876;2024-01-16T11:18:53;4.0;96.0
22676;DHT22;12521;43.310;21.876;2024-01-16T11:23:31;4.2;96.0
22676;DHT22;12521;43.310;21.876;2024-01-16T11:28:12;4.2;96.0
22676;DHT22;12521;43.310;21.876;2024-01-16T11:32:50;4.3;96.0
22676;DHT22;12521;43.310;21.876;2024-01-16T11:37:30;4.3;96.0
22676;DHT22;12521;43.310;21.876;2024-01-16T11:42:09;4.4;96.0
22676;DHT22;12521;43.310;21.876;2024-01-16T11:47:01;4.4;96.0
22676;DHT22;12521;43.310;21.876;2024-01-16T11:51:41;4.6;96.0
22676;DHT22;12521;43.310;21.876;2024-01-16T11:57:36;4.6;96.0
22676;DHT22;12521;43.310;21.876;2024-01-16T12:02:52;4.8;96.0
22676;DHT22;12521;43.310;21.876;2024-01-16T12:07:46;4.8;96.0
22676;DHT22;12521;43.310;21.876;2024-01-16T12:12:23;4.8;96.0
22676;DHT22;12521;43.310;21.876;2024-01-16T12:17:15;4.8;96.0
22676;DHT22;12521;43.310;21.876;2024-01-16T12:21:51;4.9;96.0
22676;DHT22;12521;43.310;21.876;2024-01-16T12:26:28;4.9;96.0
22676;DHT22;12521;43.310;21.876;2024-01-16T12:31:05;4.6;96.0
22676;DHT22;12521;43.310;21.876;2024-01-16T12:35:44;4.6;96.0
22676;DHT22;12521;43.310;21.876;2024-01-16T12:40:20;4.4;96.0
22676;DHT22;12521;43.310;21.876;2024-01-16T12:44:56;4.4;96.0
22676;DHT22;12521;43.310;21.876;2024-01-16T12:49:41;4.5;96.0
22676;DHT22;12521;43.310;21.876;2024-01-16T12:54:20;4.5;96.0
22676;DHT22;12521;43.310;21.876;2024-01-16T12:58:57;4.5;96.0
22676;DHT22;12521;43.310;21.876;2024-01-16T13:03:33;4.6;96.0
22676;DHT22;12521;43.310;21.876;2024-01-16T13:08:18;4.6;96.0
22676;DHT22;12521;43.310;21.876;2024-01-16T13:13:15;4.8;96.0
22676;DHT22;12521;43.310;21.876;2024-01-16T13:17:53;4.8;96.0
22676;DHT22;12521;43.310;21.876;2024-01-16T13:22:29;5.1;96.0
22676;DHT22;12521;43.310;21.876;2024-01-16T13:27:05;5.1;96.0
22676;DHT22;12521;43.310;21.876;2024-01-16T13:31:41;5.2;96.0
22676;DHT22;12521;43.310;21.876;2024-01-16T13:36:17;5.2;96.0
22676;DHT22;12521;43.310;21.876;2024-01-16T13:40:54;5.3;96.0
22676;DHT22;12521;43.310;21.876;2024-01-16T13:45:30;5.3;96.0
22676;DHT22;12521;43.310;21.876;2024-01-16T13:50:09;5.4;96.0
22676;DHT22;12521;43.310;21.876;2024-01-16T13:54:47;5.4;96.0
22676;DHT22;12521;43.310;21.876;2024-01-16T13:59:23;5.4;96.0
22676;DHT22;12521;43.310;21.876;2024-01-16T14:03:59;5.4;96.0
22676;DHT22;12521;43.310;21.876;2024-01-16T14:08:35;5.4;96.0
22676;DHT22;12521;43.310;21.876;2024-01-16T14:13:12;5.2;96.0
22676;DHT22;12521;43.310;21.876;2024-01-16T14:17:51;5.2;96.0
22676;DHT22;12521;43.310;21.876;2024-01-16T14:22:31;5.1;96.0
22676;DHT22;12521;43.310;21.876;2024-01-16T14:27:07;5.1;96.0
22676;DHT22;12521;43.310;21.876;2024-01-16T14:31:43;4.8;96.0
22676;DHT22;12521;43.310;21.876;2024-01-16T14:36:19;4.8;96.0
22676;DHT22;12521;43.310;21.876;2024-01-16T14:40:56;4.6;96.0
22676;DHT22;12521;43.310;21.876;2024-01-16T14:45:32;4.6;96.0
22676;DHT22;12521;43.310;21.876;2024-01-16T14:50:09;4.4;96.0
22676;DHT22;12521;43.310;21.876;2024-01-16T14:54:45;4.4;96.0
22676;DHT22;12521;43.310;21.876;2024-01-16T14:59:22;4.4;96.0
22676;DHT22;12521;43.310;21.876;2024-01-16T15:03:58;4.1;96.0
22676;DHT22;12521;43.310;21.876;2024-01-16T15:08:34;4.1;96.0
22676;DHT22;12521;43.310;21.876;2024-01-16T15:13:11;3.8;96.0
22676;DHT22;12521;43.310;21.876;2024-01-16T15:17:47;3.8;96.0
22676;DHT22;12521;43.310;21.876;2024-01-16T15:22:24;3.5;96.0
22676;DHT22;12521;43.310;21.876;2024-01-16T15:27:00;3.5;96.0
22676;DHT22;12521;43.310;21.876;2024-01-16T15:31:36;3.2;96.0
22676;DHT22;12521;43.310;21.876;2024-01-16T15:36:13;3.2;96.0
22676;DHT22;12521;43.310;21.876;2024-01-16T15:40:49;3.0;96.0
22676;DHT22;12521;43.310;21.876;2024-01-16T15:45:26;3.0;96.0
22676;DHT22;12521;43.310;21.876;2024-01-16T15:50:05;2.8;96.0
22676;DHT22;12521;43.310;21.876;2024-01-16T15:54:43;2.8;96.0
22676;DHT22;12521;43.310;21.876;2024-01-16T15:59:20;2.8;96.0
22676;DHT22;12521;43.310;21.876;2024-01-16T16:03:56;2.5;96.0
22676;DHT22;12521;43.310;21.876;2024-01-16T16:08:32;2.5;96.0
22676;DHT22;12521;43.310;21.876;2024-01-16T16:13:08;2.4;96.0
22676;DHT22;12521;43.310;21.876;2024-01-16T16:17:45;2.4;96.0
22676;DHT22;12521;43.310;21.876;2024-01-16T16:22:21;2.3;96.0
22676;DHT22;12521;43.310;21.876;2024-01-16T16:26:57;2.3;96.0
22676;DHT22;12521;43.310;21.876;2024-01-16T16:31:35;2.2;96.0
22676;DHT22;12521;43.310;21.876;2024-01-16T16:36:13;2.2;96.0
22676;DHT22;12521;43.310;21.876;2024-01-16T16:40:50;2.2;96.0
22676;DHT22;12521;43.310;21.876;2024-01-16T16:45:27;2.2;96.0
22676;DHT22;12521;43.310;21.876;2024-01-16T16:50:04;2.2;96.0
22676;DHT22;12521;43.310;21.876;2024-01-16T16:54:41;2.2;96.0
22676;DHT22;12521;43.310;21.876;2024-01-16T16:59:18;2.2;96.0
22676;DHT22;12521;43.310;21.876;2024-01-16T17:03:54;2.1;96.0
22676;DHT22;12521;43.310;21.876;2024-01-16T17:08:32;2.1;96.0
22676;DHT22;12521;43.310;21.876;2024-01-16T17:13:09;2.1;96.0
22676;DHT22;12521;43.310;21.876;2024-01-16T17:17:45;2.1;96.0
22676;DHT22;12521;43.310;21.876;2024-01-16T17:22:22;2.1;96.0
22676;DHT22;12521;43.310;21.876;2024-01-16T17:26:58;2.1;96.0
22676;DHT22;12521;43.310;21.876;2024-01-16T17:31:35;1.9;96.0
22676;DHT22;12521;43.310;21.876;2024-01-16T17:36:11;1.9;96.0
22676;DHT22;12521;43.310;21.876;2024-01-16T17:40:47;1.7;96.0
22676;DHT22;12521;43.310;21.876;2024-01-16T17:45:24;1.7;96.0
22676;DHT22;12521;43.310;21.876;2024-01-16T17:50:00;1.6;96.0
22676;DHT22;12521;43.310;21.876;2024-01-16T17:54:38;1.6;96.0
22676;DHT22;12521;43.310;21.876;2024-01-16T17:59:15;1.6;96.0
22676;DHT22;12521;43.310;21.876;2024-01-16T18:03:54;1.5;96.0
22676;DHT22;12521;43.310;21.876;2024-01-16T18:08:30;1.5;96.0
22676;DHT22;12521;43.310;21.876;2024-01-16T18:13:06;1.4;96.0
22676;DHT22;12521;43.310;21.876;2024-01-16T18:17:46;1.4;96.0
22676;DHT22;12521;43.310;21.876;2024-01-16T18:22:23;1.3;96.0
22676;DHT22;12521;43.310;21.876;2024-01-16T18:26:59;1.3;96.0
22676;DHT22;12521;43.310;21.876;2024-01-16T18:31:35;1.2;96.0
22676;DHT22;12521;43.310;21.876;2024-01-16T18:36:12;1.2;96.0
22676;DHT22;12521;43.310;21.876;2024-01-16T18:40:48;1.2;96.0
22676;DHT22;12521;43.310;21.876;2024-01-16T18:45:24;1.2;96.0
22676;DHT22;12521;43.310;21.876;2024-01-16T18:50:00;1.1;96.0
22676;DHT22;12521;43.310;21.876;2024-01-16T18:54:36;1.1;96.0
22676;DHT22;12521;43.310;21.876;2024-01-16T18:59:13;1.1;96.0
22676;DHT22;12521;43.310;21.876;2024-01-16T19:03:49;1.0;96.0
22676;DHT22;12521;43.310;21.876;2024-01-16T19:08:25;1.0;96.0
22676;DHT22;12521;43.310;21.876;2024-01-16T19:13:03;1.0;96.0
22676;DHT22;12521;43.310;21.876;2024-01-16T19:17:39;1.0;96.0
22676;DHT22;12521;43.310;21.876;2024-01-16T19:22:15;1.0;96.0
22676;DHT22;12521;43.310;21.876;2024-01-16T19:26:51;1.0;96.0
22676;DHT22;12521;43.310;21.876;2024-01-16T19:31:28;0.9;96.0
22676;DHT22;12521;43.310;21.876;2024-01-16T19:36:05;0.9;96.0
22676;DHT22;12521;43.310;21.876;2024-01-16T19:40:42;0.8;96.0
22676;DHT22;12521;43.310;21.876;2024-01-16T19:45:18;0.8;96.0
22676;DHT22;12521;43.310;21.876;2024-01-16T19:49:54;0.7;96.0
22676;DHT22;12521;43.310;21.876;2024-01-16T19:54:30;0.7;96.0
22676;DHT22;12521;43.310;21.876;2024-01-16T19:59:07;0.7;96.0
22676;DHT22;12521;43.310;21.876;2024-01-16T20:03:43;0.6;96.0
22676;DHT22;12521;43.310;21.876;2024-01-16T20:08:19;0.6;96.0
22676;DHT22;12521;43.310;21.876;2024-01-16T20:12:56;0.6;96.0
22676;DHT22;12521;43.310;21.876;2024-01-16T20:17:32;0.6;96.0
22676;DHT22;12521;43.310;21.876;2024-01-16T20:22:08;0.5;96.0
22676;DHT22;12521;43.310;21.876;2024-01-16T20:26:45;0.5;96.0
22676;DHT22;12521;43.310;21.876;2024-01-16T20:31:21;0.5;96.0
22676;DHT22;12521;43.310;21.876;2024-01-16T20:35:57;0.5;96.0
22676;DHT22;12521;43.310;21.876;2024-01-16T20:40:34;0.5;96.0
22676;DHT22;12521;43.310;21.876;2024-01-16T20:45:10;0.5;96.0
22676;DHT22;12521;43.310;21.876;2024-01-16T20:49:47;0.5;96.0
22676;DHT22;12521;43.310;21.876;2024-01-16T20:54:23;0.4;96.0
22676;DHT22;12521;43.310;21.876;2024-01-16T20:58:59;0.4;96.0
22676;DHT22;12521;43.310;21.876;2024-01-16T21:03:36;0.4;96.0
22676;DHT22;12521;43.310;21.876;2024-01-16T21:08:12;0.4;96.0
22676;DHT22;12521;43.310;21.876;2024-01-16T21:12:49;0.4;96.0
22676;DHT22;12521;43.310;21.876;2024-01-16T21:17:25;0.4;96.0
22676;DHT22;12521;43.310;21.876;2024-01-16T21:22:02;0.3;96.0
22676;DHT22;12521;43.310;21.876;2024-01-16T21:26:43;0.3;96.0
22676;DHT22;12521;43.310;21.876;2024-01-16T21:31:20;0.3;96.0
22676;DHT22;12521;43.310;21.876;2024-01-16T21:35:56;0.3;96.0
22676;DHT22;12521;43.310;21.876;2024-01-16T22:54:14;-0.1;96.0
22676;DHT22;12521;43.310;21.876;2024-01-16T22:58:50;-0.1;96.0
22676;DHT22;12521;43.310;21.876;2024-01-16T23:03:27;-0.1;96.0
22676;DHT22;12521;43.310;21.876;2024-01-16T23:08:05;-0.1;96.0
22676;DHT22;12521;43.310;21.876;2024-01-16T23:12:42;-0.2;96.0
22676;DHT22;12521;43.310;21.876;2024-01-16T23:17:19;-0.2;96.0
22676;DHT22;12521;43.310;21.876;2024-01-16T23:21:55;-0.3;96.0
22676;DHT22;12521;43.310;21.876;2024-01-16T23:26:31;-0.3;96.0
22676;DHT22;12521;43.310;21.876;2024-01-16T23:31:09;-0.4;96.0
22676;DHT22;12521;43.310;21.876;2024-01-16T23:35:46;-0.4;96.0
22676;DHT22;12521;43.310;21.876;2024-01-16T23:40:22;-0.4;96.0
22676;DHT22;12521;43.310;21.876;2024-01-16T23:44:58;-0.4;96.0
22676;DHT22;12521;43.310;21.876;2024-01-16T23:49:35;-0.4;96.0
22676;DHT22;12521;43.310;21.876;2024-01-16T23:54:11;-0.4;96.0
22676;DHT22;12521;43.310;21.876;2024-01-16T23:58:47;-0.4;96.0
